Time;durP1;ratioP1;P1;durP2;ratioP2;P2;SDS_P1;SDS_P2;PMS_P1;PMS_P2;Temp;Humidity;BMP_temperature;BMP_pressure;BME280_temperature;BME280_humidity;BME280_pressure;Samples;Min_cycle;Max_cycle;Signal;HPM_P1;HPM_P2
2023/12/06 00:00:37;;;;;;;47.25;20.77;;;0.70;99.90;;;;;;5052299;28;20056;-77
2023/12/06 00:03:03;;;;;;;52.25;22.08;;;0.70;99.90;;;;;;5044846;28;20540;-77
2023/12/06 00:05:30;;;;;;;47.70;21.85;;;0.80;99.90;;;;;;5045784;28;20044;-77
2023/12/06 00:07:55;;;;;;;48.70;21.30;;;0.80;99.90;;;;;;5042551;28;20500;-76
2023/12/06 00:10:21;;;;;;;50.33;22.40;;;0.80;99.90;;;;;;5047741;28;20041;-77
2023/12/06 00:12:47;;;;;;;46.20;21.13;;;0.80;99.90;;;;;;5048443;28;20063;-77
2023/12/06 00:15:12;;;;;;;50.65;21.05;;;0.80;99.90;;;;;;5045566;28;20040;-77
2023/12/06 00:17:38;;;;;;;47.67;22.35;;;0.80;99.90;;;;;;5041590;28;20064;-77
2023/12/06 00:20:05;;;;;;;52.63;21.48;;;0.80;99.90;;;;;;5049667;28;20511;-77
2023/12/06 00:22:30;;;;;;;45.72;20.92;;;0.80;99.90;;;;;;5046622;28;20089;-77
2023/12/06 00:24:56;;;;;;;45.13;20.90;;;0.80;99.90;;;;;;5047724;28;20076;-77
2023/12/06 00:27:22;;;;;;;44.92;20.88;;;0.80;99.90;;;;;;5045121;28;20049;-77
2023/12/06 00:29:47;;;;;;;52.85;23.40;;;0.80;99.90;;;;;;5039604;28;20090;-77
2023/12/06 00:32:13;;;;;;;51.45;20.67;;;0.80;99.90;;;;;;5048163;28;20045;-77
2023/12/06 00:34:39;;;;;;;50.22;22.60;;;0.90;99.90;;;;;;5040864;28;20499;-76
2023/12/06 00:37:04;;;;;;;47.13;21.75;;;0.90;99.90;;;;;;5043518;28;20052;-77
2023/12/06 00:39:30;;;;;;;53.30;22.50;;;0.80;99.90;;;;;;5076867;28;20069;-77
2023/12/06 00:41:56;;;;;;;50.20;23.55;;;0.80;99.90;;;;;;5045581;28;20132;-77
2023/12/06 00:44:21;;;;;;;50.20;22.30;;;0.90;99.90;;;;;;5077120;28;20091;-77
2023/12/06 00:46:47;;;;;;;46.97;22.83;;;0.80;99.90;;;;;;5037688;28;20073;-77
2023/12/06 00:49:13;;;;;;;43.45;20.88;;;0.80;99.90;;;;;;5043992;28;20045;-77
2023/12/06 00:51:39;;;;;;;54.67;22.27;;;0.80;99.90;;;;;;5041201;28;20129;-77
2023/12/06 00:54:05;;;;;;;43.10;21.58;;;0.80;99.90;;;;;;5039330;28;20051;-77
2023/12/06 00:56:31;;;;;;;46.80;22.20;;;0.80;99.90;;;;;;5041859;28;20048;-76
2023/12/06 00:58:56;;;;;;;48.13;21.90;;;0.80;99.90;;;;;;5045959;28;20071;-77
2023/12/06 01:01:22;;;;;;;45.35;20.30;;;0.80;99.90;;;;;;5043918;28;20060;-77
2023/12/06 01:03:47;;;;;;;44.85;20.83;;;0.80;99.90;;;;;;5045056;28;20080;-77
2023/12/06 01:06:13;;;;;;;42.97;19.85;;;0.80;99.90;;;;;;5046986;28;20393;-77
2023/12/06 01:08:39;;;;;;;42.08;21.38;;;0.80;99.90;;;;;;5042648;28;20047;-77
2023/12/06 01:11:04;;;;;;;43.45;20.67;;;0.80;99.90;;;;;;5070860;28;20084;-77
2023/12/06 01:13:30;;;;;;;46.78;21.42;;;0.80;99.90;;;;;;5046355;28;20156;-77
2023/12/06 01:15:56;;;;;;;41.72;19.75;;;0.80;99.90;;;;;;5046569;28;20072;-77
2023/12/06 01:18:22;;;;;;;42.80;20.33;;;0.80;99.90;;;;;;5046884;28;20045;-77
2023/12/06 01:20:47;;;;;;;43.58;20.38;;;0.80;99.90;;;;;;5040994;28;20037;-76
2023/12/06 01:23:13;;;;;;;42.42;20.40;;;0.80;99.90;;;;;;5044590;28;20068;-77
2023/12/06 01:25:39;;;;;;;47.63;23.42;;;0.80;99.90;;;;;;5045428;28;20098;-76
2023/12/06 01:28:04;;;;;;;47.42;21.85;;;0.80;99.90;;;;;;5043948;28;20048;-77
2023/12/06 01:30:30;;;;;;;43.97;21.58;;;0.80;99.90;;;;;;5042046;28;20040;-76
2023/12/06 01:32:55;;;;;;;44.53;22.38;;;0.90;99.90;;;;;;5046811;28;20096;-76
2023/12/06 01:35:21;;;;;;;49.80;20.92;;;0.90;99.90;;;;;;5044913;28;20060;-77
2023/12/06 01:37:47;;;;;;;40.13;19.58;;;0.90;99.90;;;;;;5039709;28;20070;-77
2023/12/06 01:40:13;;;;;;;41.33;20.50;;;0.90;99.90;;;;;;5043479;28;20040;-77
2023/12/06 01:42:39;;;;;;;44.30;21.63;;;0.90;99.90;;;;;;5041284;28;20065;-77
2023/12/06 01:45:05;;;;;;;45.90;21.95;;;0.90;99.90;;;;;;5044748;28;20132;-77
2023/12/06 01:47:32;;;;;;;47.40;20.50;;;0.90;99.90;;;;;;5041523;28;20056;-77
2023/12/06 01:50:01;;;;;;;44.55;23.42;;;0.90;99.90;;;;;;5039925;28;20112;-77
2023/12/06 01:52:27;;;;;;;46.40;23.08;;;0.90;99.90;;;;;;5046582;28;20045;-77
2023/12/06 01:54:57;;;;;;;42.38;20.60;;;0.90;99.90;;;;;;5045130;28;20560;-77
2023/12/06 01:57:27;;;;;;;46.13;20.70;;;0.90;99.90;;;;;;5041860;28;20546;-76
2023/12/06 01:59:54;;;;;;;45.15;21.73;;;0.90;99.90;;;;;;5045417;28;20053;-77
2023/12/06 02:02:20;;;;;;;44.30;22.02;;;1.00;99.90;;;;;;5043896;28;20056;-77
2023/12/06 02:04:46;;;;;;;47.25;22.38;;;0.90;99.90;;;;;;5043849;28;20045;-77
2023/12/06 02:07:12;;;;;;;44.95;22.73;;;0.90;99.90;;;;;;5038712;28;20373;-76
2023/12/06 02:09:38;;;;;;;41.50;21.80;;;0.90;99.90;;;;;;5039537;28;20057;-77
2023/12/06 02:12:04;;;;;;;48.67;22.60;;;0.90;99.90;;;;;;5045660;28;20049;-77
2023/12/06 02:14:35;;;;;;;43.58;20.70;;;0.80;99.90;;;;;;5045738;28;20052;-77
2023/12/06 02:17:05;;;;;;;44.22;22.08;;;0.90;99.90;;;;;;5040253;28;20075;-76
2023/12/06 02:19:31;;;;;;;48.40;21.98;;;0.90;99.90;;;;;;5047179;28;20546;-76
2023/12/06 02:21:58;;;;;;;44.90;22.03;;;0.90;99.90;;;;;;5043174;28;20120;-76
2023/12/06 02:24:30;;;;;;;48.60;22.13;;;0.90;99.90;;;;;;5042485;28;20341;-77
2023/12/06 02:26:56;;;;;;;43.03;20.83;;;0.90;99.90;;;;;;5041944;28;20094;-77
2023/12/06 02:29:24;;;;;;;44.97;21.15;;;0.90;99.90;;;;;;5044594;28;20073;-77
2023/12/06 02:31:51;;;;;;;39.70;19.83;;;0.90;99.90;;;;;;5045399;28;20071;-77
2023/12/06 02:34:19;;;;;;;40.75;20.65;;;0.90;99.90;;;;;;5044643;28;20044;-76
2023/12/06 02:36:53;;;;;;;46.97;21.92;;;0.90;99.90;;;;;;5040416;28;20060;-76
2023/12/06 02:39:19;;;;;;;42.05;21.65;;;0.90;99.90;;;;;;5045964;28;20045;-77
2023/12/06 02:41:44;;;;;;;40.80;20.63;;;0.90;99.90;;;;;;5041945;28;20148;-77
2023/12/06 02:44:10;;;;;;;44.17;20.40;;;0.90;99.90;;;;;;5046741;28;20124;-76
2023/12/06 02:46:36;;;;;;;47.00;22.10;;;0.80;99.90;;;;;;5051830;28;20052;-76
2023/12/06 02:49:02;;;;;;;46.10;22.15;;;0.90;99.90;;;;;;5048299;28;20083;-77
2023/12/06 02:51:28;;;;;;;43.72;20.73;;;0.90;99.90;;;;;;5051125;28;20492;-77
2023/12/06 02:53:54;;;;;;;42.38;20.50;;;0.90;99.90;;;;;;5042734;28;20097;-76
2023/12/06 02:56:20;;;;;;;40.42;20.20;;;0.90;99.90;;;;;;5049138;28;20388;-76
2023/12/06 02:58:45;;;;;;;44.90;22.08;;;1.00;99.90;;;;;;5044041;28;20064;-76
2023/12/06 03:01:11;;;;;;;48.53;22.52;;;0.90;99.90;;;;;;5049174;28;20135;-76
2023/12/06 03:03:37;;;;;;;39.38;19.10;;;0.90;99.90;;;;;;5044326;28;20504;-76
2023/12/06 03:06:03;;;;;;;50.55;22.65;;;0.90;99.90;;;;;;5047670;28;20049;-77
2023/12/06 03:08:28;;;;;;;51.58;23.63;;;0.90;99.90;;;;;;5049053;28;20045;-77
2023/12/06 03:10:54;;;;;;;43.58;21.05;;;0.90;99.90;;;;;;5045079;28;20041;-76
2023/12/06 03:13:19;;;;;;;44.28;21.17;;;0.90;99.90;;;;;;5051799;28;20041;-76
2023/12/06 03:15:45;;;;;;;46.72;21.45;;;0.90;99.90;;;;;;5045143;28;20048;-76
2023/12/06 03:18:11;;;;;;;47.45;20.38;;;0.90;99.90;;;;;;5050943;28;20040;-77
2023/12/06 03:20:36;;;;;;;44.25;20.63;;;0.90;99.90;;;;;;5044137;28;21733;-76
2023/12/06 03:23:02;;;;;;;41.20;20.60;;;0.90;99.90;;;;;;5043472;28;20346;-77
2023/12/06 03:25:28;;;;;;;42.33;19.98;;;0.90;99.90;;;;;;5046725;28;20491;-77
2023/12/06 03:27:54;;;;;;;48.47;22.58;;;0.90;99.90;;;;;;5047850;28;20715;-77
2023/12/06 03:30:20;;;;;;;50.17;21.67;;;0.90;99.90;;;;;;5045768;28;20112;-77
2023/12/06 03:32:46;;;;;;;43.58;20.52;;;1.00;99.90;;;;;;5042724;28;20663;-76
2023/12/06 03:35:11;;;;;;;45.80;19.90;;;1.00;99.90;;;;;;5046862;28;20079;-76
2023/12/06 03:37:37;;;;;;;43.15;21.77;;;1.00;99.90;;;;;;5046407;28;20492;-76
2023/12/06 03:40:03;;;;;;;43.40;19.92;;;1.00;99.90;;;;;;5038618;28;20040;-76
2023/12/06 03:42:28;;;;;;;47.03;20.42;;;1.00;99.90;;;;;;5046374;28;20115;-76
2023/12/06 03:44:54;;;;;;;48.53;21.33;;;1.00;99.90;;;;;;5046149;28;20494;-76
2023/12/06 03:47:20;;;;;;;44.15;21.20;;;1.00;99.90;;;;;;5044330;28;20037;-77
2023/12/06 03:49:45;;;;;;;44.95;21.20;;;1.00;99.90;;;;;;5047744;28;20040;-77
2023/12/06 03:52:11;;;;;;;42.97;19.52;;;1.00;99.90;;;;;;5047363;28;20047;-77
2023/12/06 03:54:37;;;;;;;45.60;19.80;;;1.00;99.90;;;;;;5046494;28;20029;-76
2023/12/06 03:57:02;;;;;;;49.45;23.38;;;1.00;99.90;;;;;;5038811;28;20050;-76
2023/12/06 03:59:28;;;;;;;45.08;20.08;;;1.00;99.90;;;;;;5048789;28;20168;-76
2023/12/06 04:01:54;;;;;;;38.30;19.65;;;1.00;99.90;;;;;;5045003;28;20044;-77
2023/12/06 04:04:19;;;;;;;42.05;19.00;;;1.00;99.90;;;;;;5044527;28;20439;-76
2023/12/06 04:06:45;;;;;;;40.25;18.45;;;1.00;99.90;;;;;;5042031;28;20064;-77
2023/12/06 04:09:13;;;;;;;45.33;20.85;;;1.00;99.90;;;;;;5044879;28;20045;-77
2023/12/06 04:11:39;;;;;;;42.67;20.65;;;1.00;99.90;;;;;;5048926;28;20080;-76
2023/12/06 04:14:05;;;;;;;42.17;20.52;;;1.10;99.90;;;;;;5042110;28;20083;-76
2023/12/06 04:16:31;;;;;;;41.10;21.17;;;1.10;99.90;;;;;;5045193;28;20037;-76
2023/12/06 04:18:57;;;;;;;40.53;20.58;;;1.10;99.90;;;;;;5046421;28;20099;-76
2023/12/06 04:21:22;;;;;;;43.92;19.70;;;1.10;99.90;;;;;;5046517;28;20577;-76
2023/12/06 04:23:48;;;;;;;39.50;19.15;;;1.10;99.90;;;;;;5048134;28;20040;-76
2023/12/06 04:26:14;;;;;;;44.47;19.77;;;1.10;99.90;;;;;;5046996;28;20052;-76
2023/12/06 04:28:40;;;;;;;41.28;19.80;;;1.10;99.90;;;;;;5046686;28;20048;-77
2023/12/06 04:31:06;;;;;;;43.92;19.98;;;1.10;99.90;;;;;;5044179;28;20037;-76
2023/12/06 04:33:31;;;;;;;38.70;17.77;;;1.10;99.90;;;;;;5044513;28;20049;-75
2023/12/06 04:35:57;;;;;;;39.88;18.73;;;1.10;99.90;;;;;;5076399;28;20034;-76
2023/12/06 04:38:23;;;;;;;37.95;18.52;;;1.10;99.90;;;;;;5042985;28;20048;-76
2023/12/06 04:40:48;;;;;;;39.95;19.17;;;1.10;99.90;;;;;;5047539;28;20053;-76
2023/12/06 04:43:16;;;;;;;40.30;19.05;;;1.10;99.90;;;;;;5047090;28;20052;-76
2023/12/06 04:45:41;;;;;;;;;;;1.10;99.90;;;;;;5047240;28;20116;-76
2023/12/06 04:48:07;;;;;;;41.78;19.50;;;1.10;99.90;;;;;;5041589;28;20028;-77
2023/12/06 04:50:33;;;;;;;39.35;18.35;;;1.10;99.90;;;;;;5043775;28;20075;-76
2023/12/06 04:52:58;;;;;;;38.20;17.88;;;1.10;99.90;;;;;;5045709;28;20095;-76
2023/12/06 04:55:24;;;;;;;37.40;17.52;;;1.10;99.90;;;;;;5048341;28;20214;-76
2023/12/06 04:57:50;;;;;;;35.88;17.23;;;1.10;99.90;;;;;;5047664;28;20037;-76
2023/12/06 05:00:17;;;;;;;36.35;16.65;;;1.10;99.90;;;;;;5047191;28;20055;-76
2023/12/06 05:02:43;;;;;;;32.13;16.17;;;1.10;99.90;;;;;;5044715;28;20053;-76
2023/12/06 05:05:08;;;;;;;34.10;16.83;;;1.10;99.90;;;;;;5041260;28;20451;-76
2023/12/06 05:07:34;;;;;;;34.03;17.08;;;1.10;99.90;;;;;;5041429;28;20102;-76
2023/12/06 05:10:00;;;;;;;34.95;16.65;;;1.10;99.90;;;;;;5041941;28;20342;-76
2023/12/06 05:12:25;;;;;;;32.10;15.43;;;1.10;99.90;;;;;;5042688;28;20080;-76
2023/12/06 05:14:51;;;;;;;35.97;16.42;;;1.20;99.90;;;;;;5042739;28;20128;-76
2023/12/06 05:17:16;;;;;;;31.75;15.93;;;1.10;99.90;;;;;;5043911;28;20048;-76
2023/12/06 05:19:42;;;;;;;31.48;16.90;;;1.10;99.90;;;;;;5044179;28;20045;-76
2023/12/06 05:22:08;;;;;;;36.97;17.50;;;1.10;99.90;;;;;;5044175;28;20519;-76
2023/12/06 05:24:33;;;;;;;30.83;16.10;;;1.10;99.90;;;;;;5047478;28;20056;-76
2023/12/06 05:26:59;;;;;;;31.10;15.98;;;1.10;99.90;;;;;;5041028;28;20045;-76
2023/12/06 05:29:24;;;;;;;28.70;16.13;;;1.10;99.90;;;;;;5044999;28;20044;-77
2023/12/06 05:31:50;;;;;;;30.15;16.08;;;1.10;99.90;;;;;;5036082;28;20049;-76
2023/12/06 05:34:16;;;;;;;27.73;15.07;;;1.10;99.90;;;;;;5039201;28;20041;-76
2023/12/06 05:36:41;;;;;;;29.98;15.10;;;1.10;99.90;;;;;;5045052;28;20079;-76
2023/12/06 05:39:07;;;;;;;31.10;15.82;;;1.10;99.90;;;;;;5049296;28;20520;-76
2023/12/06 05:41:33;;;;;;;31.67;16.20;;;1.10;99.90;;;;;;5045194;28;20036;-76
2023/12/06 05:43:59;;;;;;;30.63;15.02;;;1.10;99.90;;;;;;5044863;28;20072;-76
2023/12/06 05:46:24;;;;;;;37.17;16.63;;;1.10;99.90;;;;;;5046705;28;20048;-76
2023/12/06 05:48:50;;;;;;;35.67;18.02;;;1.10;99.90;;;;;;5043713;28;20041;-76
2023/12/06 05:51:15;;;;;;;34.30;18.33;;;1.10;99.90;;;;;;5046230;28;20052;-76
2023/12/06 05:53:41;;;;;;;39.08;18.50;;;1.10;99.90;;;;;;5044302;28;20041;-77
2023/12/06 05:56:08;;;;;;;34.90;18.27;;;1.10;99.90;;;;;;5045343;28;20100;-76
2023/12/06 05:58:34;;;;;;;38.75;19.13;;;1.10;99.90;;;;;;5058445;28;20053;-76
2023/12/06 06:01:00;;;;;;;35.25;18.77;;;1.10;99.90;;;;;;5039183;28;20523;-76
2023/12/06 06:03:26;;;;;;;30.60;16.63;;;1.10;99.90;;;;;;5045460;28;20136;-76
2023/12/06 06:05:52;;;;;;;34.53;18.20;;;1.10;99.90;;;;;;5078772;28;20551;-76
2023/12/06 06:08:17;;;;;;;31.50;16.88;;;1.10;99.90;;;;;;5047347;28;20448;-76
2023/12/06 06:10:43;;;;;;;35.55;17.50;;;1.20;99.90;;;;;;5040708;28;20092;-76
2023/12/06 06:13:09;;;;;;;39.85;18.88;;;1.20;99.90;;;;;;5045488;28;20041;-76
2023/12/06 06:15:35;;;;;;;35.13;19.00;;;1.20;99.90;;;;;;5041886;28;20049;-76
2023/12/06 06:18:03;;;;;;;33.45;17.73;;;1.20;99.90;;;;;;5045179;28;20056;-76
2023/12/06 06:20:28;;;;;;;38.22;19.30;;;1.20;99.90;;;;;;5051215;28;20082;-76
2023/12/06 06:22:54;;;;;;;35.85;18.33;;;1.20;99.90;;;;;;5045330;28;20041;-76
2023/12/06 06:25:21;;;;;;;39.40;19.90;;;1.20;99.90;;;;;;5049332;28;20073;-76
2023/12/06 06:27:47;;;;;;;36.95;18.80;;;1.20;99.90;;;;;;5049775;28;20116;-77
2023/12/06 06:30:13;;;;;;;39.65;20.05;;;1.20;99.90;;;;;;5044438;28;20191;-76
2023/12/06 06:32:39;;;;;;;35.80;16.95;;;1.20;99.90;;;;;;5043709;28;20045;-77
2023/12/06 06:35:05;;;;;;;33.58;17.33;;;1.20;99.90;;;;;;5069041;28;20435;-76
2023/12/06 06:37:30;;;;;;;31.60;17.55;;;1.20;99.90;;;;;;5045995;28;20044;-76
2023/12/06 06:39:59;;;;;;;35.33;17.33;;;1.20;99.90;;;;;;5078019;28;20053;-79
2023/12/06 06:42:25;;;;;;;34.40;17.08;;;1.20;99.90;;;;;;5045752;28;20056;-78
2023/12/06 06:44:55;;;;;;;35.30;17.08;;;1.20;99.90;;;;;;5043666;28;20037;-77
2023/12/06 06:47:21;;;;;;;34.10;17.95;;;1.30;99.90;;;;;;5037984;28;20102;-77
2023/12/06 06:49:47;;;;;;;32.05;17.35;;;1.20;99.90;;;;;;5043902;28;20045;-78
2023/12/06 06:52:13;;;;;;;31.98;16.83;;;1.30;99.90;;;;;;5038973;28;20079;-77
2023/12/06 06:54:38;;;;;;;36.22;17.15;;;1.20;99.90;;;;;;5036604;28;20088;-78
2023/12/06 06:57:04;;;;;;;31.48;15.25;;;1.20;99.90;;;;;;5044065;28;20410;-77
2023/12/06 06:59:30;;;;;;;31.08;16.95;;;1.30;99.90;;;;;;5045589;28;20052;-77
2023/12/06 07:01:56;;;;;;;30.58;16.50;;;1.30;99.90;;;;;;5037616;28;20530;-77
2023/12/06 07:04:22;;;;;;;31.25;17.95;;;1.30;99.90;;;;;;5036391;28;20535;-78
2023/12/06 07:06:49;;;;;;;30.73;15.68;;;1.30;99.90;;;;;;5038957;28;20056;-78
2023/12/06 07:09:14;;;;;;;28.70;16.50;;;1.30;99.90;;;;;;5037524;28;20118;-78
2023/12/06 07:11:40;;;;;;;33.28;17.33;;;1.30;99.90;;;;;;5039509;28;20044;-77
2023/12/06 07:14:06;;;;;;;30.80;16.77;;;1.30;99.90;;;;;;5040195;28;20045;-77
2023/12/06 07:16:32;;;;;;;30.20;16.33;;;1.30;99.90;;;;;;5046306;28;20451;-78
2023/12/06 07:18:58;;;;;;;30.08;15.50;;;1.30;99.90;;;;;;5078704;28;20045;-77
2023/12/06 07:21:23;;;;;;;32.50;16.92;;;1.30;99.90;;;;;;5048412;28;20044;-78
2023/12/06 07:23:49;;;;;;;32.70;17.15;;;1.30;99.90;;;;;;5043621;28;20045;-78
2023/12/06 07:26:15;;;;;;;33.17;17.58;;;1.40;99.90;;;;;;5039521;28;20086;-78
2023/12/06 07:28:40;;;;;;;30.27;16.38;;;1.40;99.90;;;;;;5040052;28;20559;-77
2023/12/06 07:31:06;;;;;;;27.55;16.02;;;1.40;99.90;;;;;;5040933;28;20056;-77
2023/12/06 07:33:32;;;;;;;28.48;15.88;;;1.40;99.90;;;;;;5053737;28;20036;-78
2023/12/06 07:35:57;;;;;;;29.75;16.38;;;1.40;99.90;;;;;;5061454;28;20053;-77
2023/12/06 07:38:25;;;;;;;31.80;17.00;;;1.40;99.90;;;;;;5042019;28;20037;-76
2023/12/06 07:40:51;;;;;;;30.67;16.38;;;1.40;99.90;;;;;;5033929;28;20056;-77
2023/12/06 07:43:16;;;;;;;32.80;17.40;;;1.50;99.90;;;;;;5047771;28;20053;-76
2023/12/06 07:45:42;;;;;;;29.48;15.40;;;1.50;99.90;;;;;;5040484;28;20089;-77
2023/12/06 07:48:08;;;;;;;28.27;16.13;;;1.50;99.90;;;;;;5035603;28;20178;-77
2023/12/06 07:50:33;;;;;;;26.25;14.77;;;1.50;99.90;;;;;;5039597;28;20124;-77
2023/12/06 07:52:59;;;;;;;28.88;15.85;;;1.50;99.90;;;;;;5042198;28;20512;-77
2023/12/06 07:55:25;;;;;;;31.88;15.88;;;1.50;99.90;;;;;;5051416;28;20510;-77
2023/12/06 07:57:50;;;;;;;27.92;16.23;;;1.60;99.90;;;;;;5040174;28;20053;-78
2023/12/06 08:00:18;;;;;;;32.58;16.42;;;1.60;99.90;;;;;;5035575;28;20056;-77
2023/12/06 08:02:43;;;;;;;;;;;1.50;99.90;;;;;;5040936;28;20049;-77
2023/12/06 08:05:10;;;;;;;28.48;15.30;;;1.60;99.90;;;;;;5051850;28;19921;-77
2023/12/06 08:07:37;;;;;;;29.35;14.88;;;1.60;99.90;;;;;;5035286;28;20465;-77
2023/12/06 08:10:08;;;;;;;25.10;15.43;;;1.60;99.90;;;;;;5043119;28;20064;-78
2023/12/06 08:12:34;;;;;;;28.80;14.90;;;1.60;99.90;;;;;;5042056;28;20068;-79
2023/12/06 08:15:00;;;;;;;29.23;17.23;;;1.60;99.90;;;;;;5044991;28;20496;-80
2023/12/06 08:17:26;;;;;;;28.83;16.05;;;1.60;99.90;;;;;;5041312;28;20044;-77
2023/12/06 08:19:52;;;;;;;26.77;15.25;;;1.60;99.90;;;;;;5042895;28;20041;-77
2023/12/06 08:22:19;;;;;;;25.17;15.00;;;1.60;99.90;;;;;;5040349;28;20124;-77
2023/12/06 08:24:45;;;;;;;28.48;16.13;;;1.60;99.90;;;;;;5042251;28;20048;-79
2023/12/06 08:27:11;;;;;;;26.88;15.65;;;1.60;99.90;;;;;;5053768;28;20112;-78
2023/12/06 08:29:38;;;;;;;31.38;16.23;;;1.60;99.90;;;;;;5045389;28;20562;-81
2023/12/06 08:32:04;;;;;;;31.10;17.25;;;1.70;99.90;;;;;;5047214;28;20690;-78
2023/12/06 08:34:30;;;;;;;30.95;16.60;;;1.70;99.90;;;;;;5049914;28;20676;-78
2023/12/06 08:36:56;;;;;;;31.55;16.27;;;1.70;99.90;;;;;;5048085;28;20119;-78
2023/12/06 08:39:21;;;;;;;28.23;15.85;;;1.70;99.90;;;;;;5046344;28;20065;-78
2023/12/06 08:41:47;;;;;;;28.52;16.38;;;1.70;99.90;;;;;;5047975;28;20174;-78
2023/12/06 08:44:13;;;;;;;27.60;16.02;;;1.80;99.90;;;;;;5048388;28;20048;-79
2023/12/06 08:46:38;;;;;;;26.35;15.13;;;1.80;99.90;;;;;;5042421;28;20057;-79
2023/12/06 08:49:04;;;;;;;27.80;15.65;;;1.80;99.90;;;;;;5048109;28;20049;-79
2023/12/06 08:51:29;;;;;;;27.60;14.75;;;1.80;99.90;;;;;;5041492;28;20076;-79
2023/12/06 08:53:56;;;;;;;29.67;14.75;;;1.80;99.90;;;;;;5036434;28;20072;-79
2023/12/06 08:56:21;;;;;;;30.23;16.17;;;1.90;99.90;;;;;;5044967;28;20167;-79
2023/12/06 08:58:47;;;;;;;28.45;15.57;;;1.90;99.90;;;;;;5046494;28;20140;-78
2023/12/06 09:01:13;;;;;;;29.20;16.10;;;1.90;99.90;;;;;;5048051;28;20060;-77
2023/12/06 09:03:39;;;;;;;29.05;15.45;;;1.90;99.90;;;;;;5049396;28;20049;-77
2023/12/06 09:06:05;;;;;;;27.05;16.02;;;1.90;99.90;;;;;;5047052;28;20045;-76
2023/12/06 09:08:31;;;;;;;31.30;16.13;;;2.00;99.90;;;;;;5046467;28;20041;-77
2023/12/06 09:10:58;;;;;;;29.67;15.30;;;2.00;99.90;;;;;;5038294;28;20044;-77
2023/12/06 09:13:24;;;;;;;32.63;15.83;;;2.00;99.90;;;;;;5036802;28;20080;-77
2023/12/06 09:15:49;;;;;;;27.60;14.82;;;2.00;99.90;;;;;;5052048;28;20094;-80
2023/12/06 09:18:15;;;;;;;28.65;16.08;;;2.00;99.90;;;;;;5058132;28;20085;-77
2023/12/06 09:20:42;;;;;;;26.33;14.57;;;2.10;99.90;;;;;;5050368;28;20044;-77
2023/12/06 09:23:08;;;;;;;26.80;15.05;;;2.10;99.90;;;;;;5048135;28;20241;-77
2023/12/06 09:25:34;;;;;;;30.33;15.55;;;2.10;99.90;;;;;;5040097;28;20053;-76
2023/12/06 09:28:00;;;;;;;27.33;15.00;;;2.10;99.90;;;;;;5047560;28;20057;-76
2023/12/06 09:30:25;;;;;;;26.30;14.27;;;2.10;99.90;;;;;;5044478;28;20087;-77
2023/12/06 09:32:51;;;;;;;29.00;15.07;;;2.20;99.90;;;;;;5044783;28;20599;-75
2023/12/06 09:35:17;;;;;;;24.02;13.73;;;2.20;99.90;;;;;;5048360;28;20059;-75
2023/12/06 09:37:43;;;;;;;25.52;14.65;;;2.20;99.90;;;;;;5038575;28;20555;-76
2023/12/06 09:40:09;;;;;;;23.67;14.25;;;2.20;99.90;;;;;;5046977;28;20044;-76
2023/12/06 09:42:37;;;;;;;26.63;14.45;;;2.30;99.90;;;;;;5048740;28;20036;-76
2023/12/06 09:45:04;;;;;;;26.80;15.73;;;2.30;99.90;;;;;;5045655;28;20044;-76
2023/12/06 09:47:31;;;;;;;27.10;14.73;;;2.30;99.90;;;;;;5046977;28;20397;-77
2023/12/06 09:49:57;;;;;;;24.03;14.13;;;2.40;99.90;;;;;;5046300;28;20037;-77
2023/12/06 09:52:23;;;;;;;29.50;14.18;;;2.40;99.90;;;;;;5046345;28;20041;-79
2023/12/06 09:54:50;;;;;;;23.95;13.50;;;2.40;99.90;;;;;;5048826;28;20041;-79
2023/12/06 09:57:16;;;;;;;23.27;13.63;;;2.40;99.90;;;;;;5047384;28;20033;-79
2023/12/06 09:59:42;;;;;;;24.05;13.93;;;2.40;99.90;;;;;;5050070;28;20053;-81
2023/12/06 10:02:08;;;;;;;24.23;14.25;;;2.40;99.90;;;;;;5045586;28;20053;-74
2023/12/06 10:04:36;;;;;;;22.25;12.63;;;2.50;99.90;;;;;;5044200;28;20052;-74
2023/12/06 10:07:02;;;;;;;23.05;12.25;;;2.50;99.90;;;;;;5046541;28;20036;-74
2023/12/06 10:09:28;;;;;;;24.27;11.18;;;2.50;99.90;;;;;;5048432;28;20111;-75
2023/12/06 10:12:08;;;;;;;25.90;13.07;;;2.50;99.90;;;;;;5041836;28;20665;-74
2023/12/06 10:14:34;;;;;;;20.55;12.82;;;2.50;99.90;;;;;;5073636;28;20103;-74
2023/12/06 10:17:01;;;;;;;21.65;11.38;;;2.60;99.90;;;;;;5048957;28;20044;-76
2023/12/06 10:19:26;;;;;;;23.13;12.73;;;2.60;99.90;;;;;;5049052;28;20033;-74
2023/12/06 10:21:53;;;;;;;22.83;13.90;;;2.60;99.90;;;;;;5049231;28;20056;-76
2023/12/06 10:24:18;;;;;;;19.00;13.25;;;2.60;99.90;;;;;;5049471;28;20091;-76
2023/12/06 10:26:46;;;;;;;22.27;11.45;;;2.50;99.90;;;;;;5049884;28;20048;-75
2023/12/06 10:29:12;;;;;;;23.17;12.75;;;2.60;99.90;;;;;;5049060;28;20053;-75
2023/12/06 10:31:42;;;;;;;25.35;12.73;;;2.60;99.90;;;;;;5045510;28;20041;-75
2023/12/06 10:34:08;;;;;;;25.38;12.13;;;2.60;99.90;;;;;;5046721;28;20047;-75
2023/12/06 10:36:35;;;;;;;22.05;11.80;;;2.70;99.90;;;;;;5046087;28;20128;-74
2023/12/06 10:39:04;;;;;;;26.77;12.02;;;2.70;99.90;;;;;;5049436;28;20132;-75
2023/12/06 10:41:31;;;;;;;24.50;13.18;;;2.70;99.90;;;;;;5043509;28;20049;-74
2023/12/06 10:43:59;;;;;;;;;;;2.70;99.90;;;;;;5049611;28;20392;-74
2023/12/06 10:46:24;;;;;;;;;;;2.70;99.90;;;;;;5060452;28;19931;-74
2023/12/06 10:48:53;;;;;;;21.65;12.10;;;2.70;99.90;;;;;;5049550;28;19916;-75
2023/12/06 10:51:20;;;;;;;20.00;12.20;;;2.70;99.90;;;;;;5069287;28;20049;-74
2023/12/06 10:53:47;;;;;;;22.58;11.63;;;2.70;99.90;;;;;;5039569;28;20522;-74
2023/12/06 10:56:15;;;;;;;22.92;12.93;;;2.70;99.90;;;;;;5035681;28;20041;-73
2023/12/06 10:58:42;;;;;;;24.48;12.40;;;2.70;99.90;;;;;;5057339;28;20100;-74
2023/12/06 11:01:09;;;;;;;21.17;11.65;;;2.80;99.90;;;;;;5047033;28;20124;-73
2023/12/06 11:03:36;;;;;;;19.73;10.75;;;2.70;99.90;;;;;;5047300;28;20102;-73
2023/12/06 11:06:17;;;;;;;19.63;11.80;;;2.70;99.90;;;;;;5045312;28;20053;-74
2023/12/06 11:09:09;;;;;;;19.00;11.63;;;2.80;99.90;;;;;;5048219;28;20052;-73
2023/12/06 11:12:14;;;;;;;18.35;9.60;;;2.70;99.90;;;;;;5048962;28;20403;-74
2023/12/06 11:15:05;;;;;;;19.35;10.60;;;2.80;99.90;;;;;;5044344;28;20051;-73
2023/12/06 11:17:44;;;;;;;15.70;10.30;;;2.80;99.90;;;;;;5048629;28;20033;-71
2023/12/06 11:20:10;;;;;;;23.65;10.45;;;2.80;99.90;;;;;;5048061;28;20405;-73
2023/12/06 11:22:37;;;;;;;18.92;9.95;;;2.80;99.90;;;;;;5049143;28;20049;-74
2023/12/06 11:25:03;;;;;;;17.92;10.68;;;2.80;99.90;;;;;;5048727;28;20056;-73
2023/12/06 11:27:29;;;;;;;19.65;11.10;;;2.80;99.90;;;;;;5049085;28;20045;-73
2023/12/06 11:29:55;;;;;;;21.17;12.30;;;2.80;99.90;;;;;;5050222;28;20513;-74
2023/12/06 11:32:21;;;;;;;19.98;11.77;;;2.80;99.90;;;;;;5045810;28;20044;-73
2023/12/06 11:34:55;;;;;;;23.52;11.82;;;2.80;99.90;;;;;;5054127;28;20060;-73
2023/12/06 11:37:22;;;;;;;23.75;13.20;;;2.80;99.90;;;;;;5049360;28;20045;-73
2023/12/06 11:40:07;;;;;;;20.30;11.23;;;2.90;99.90;;;;;;5048057;28;20045;-74
2023/12/06 11:42:38;;;;;;;17.00;10.17;;;2.90;99.90;;;;;;5046300;28;20132;-75
2023/12/06 11:45:25;;;;;;;38.47;12.52;;;2.90;99.90;;;;;;5047823;28;20060;-72
2023/12/06 11:47:52;;;;;;;21.70;12.02;;;2.90;99.90;;;;;;5048788;28;20080;-72
2023/12/06 11:50:19;;;;;;;21.80;12.55;;;2.90;99.90;;;;;;5047488;28;20396;-74
2023/12/06 11:52:54;;;;;;;25.95;14.35;;;2.90;99.90;;;;;;5045522;28;20068;-74
2023/12/06 11:55:21;;;;;;;22.00;12.23;;;2.90;99.90;;;;;;5048816;28;20080;-74
2023/12/06 11:58:10;;;;;;;21.13;12.17;;;3.00;99.90;;;;;;5049470;28;20076;-73
2023/12/06 12:00:39;;;;;;;22.08;11.02;;;3.00;99.90;;;;;;5058211;28;20068;-74
2023/12/06 12:03:06;;;;;;;24.90;12.00;;;3.00;99.90;;;;;;5043561;28;20500;-72
2023/12/06 12:05:34;;;;;;;25.05;13.20;;;3.00;99.90;;;;;;5046951;28;20144;-74
2023/12/06 12:08:04;;;;;;;21.00;10.40;;;3.10;99.90;;;;;;5039499;28;20042;-73
2023/12/06 12:10:30;;;;;;;22.17;11.93;;;3.10;99.90;;;;;;5040011;28;20049;-74
2023/12/06 12:12:57;;;;;;;20.27;11.30;;;3.10;99.90;;;;;;5049985;28;20053;-74
2023/12/06 12:15:25;;;;;;;19.40;11.20;;;3.10;99.90;;;;;;5045933;28;20067;-75
2023/12/06 12:17:51;;;;;;;26.60;12.70;;;3.10;99.90;;;;;;5039163;28;20068;-75
2023/12/06 12:20:17;;;;;;;21.57;11.33;;;3.10;99.90;;;;;;5044679;28;20120;-73
2023/12/06 12:22:49;;;;;;;20.27;12.15;;;3.20;99.90;;;;;;5041141;28;20037;-73
2023/12/06 12:25:16;;;;;;;20.95;11.32;;;3.20;99.90;;;;;;5035520;28;20064;-74
2023/12/06 12:27:47;;;;;;;19.08;10.63;;;3.20;99.90;;;;;;5036293;28;20053;-73
2023/12/06 12:30:13;;;;;;;19.17;11.45;;;3.20;99.90;;;;;;5044932;28;20044;-73
2023/12/06 12:32:44;;;;;;;22.50;12.00;;;3.20;99.90;;;;;;5038578;28;20404;-73
2023/12/06 12:35:10;;;;;;;20.20;10.38;;;3.30;99.90;;;;;;5045151;28;20083;-73